sensor_id;sensor_type;location;lat;lon;timestamp;temperature;humidity
18839;DHT22;9548;56.920;14.804;2023-02-15T00:02:00;2.20;99.90
18839;DHT22;9548;56.920;14.804;2023-02-15T00:04:27;2.20;99.90
18839;DHT22;9548;56.920;14.804;2023-02-15T00:07:14;2.20;99.90
18839;DHT22;9548;56.920;14.804;2023-02-15T00:09:41;2.20;99.90
18839;DHT22;9548;56.920;14.804;2023-02-15T00:12:09;2.10;99.90
18839;DHT22;9548;56.920;14.804;2023-02-15T00:14:36;2.20;99.90
18839;DHT22;9548;56.920;14.804;2023-02-15T00:17:04;2.10;99.90
18839;DHT22;9548;56.920;14.804;2023-02-15T00:19:31;2.10;99.90
18839;DHT22;9548;56.920;14.804;2023-02-15T00:21:58;2.10;99.90
18839;DHT22;9548;56.920;14.804;2023-02-15T00:24:26;2.00;99.90
18839;DHT22;9548;56.920;14.804;2023-02-15T00:26:53;2.00;99.90
18839;DHT22;9548;56.920;14.804;2023-02-15T00:29:21;2.00;99.90
18839;DHT22;9548;56.920;14.804;2023-02-15T00:31:47;2.00;99.90
18839;DHT22;9548;56.920;14.804;2023-02-15T00:34:16;2.00;99.90
18839;DHT22;9548;56.920;14.804;2023-02-15T00:36:44;2.10;99.90
18839;DHT22;9548;56.920;14.804;2023-02-15T00:39:12;2.10;99.90
18839;DHT22;9548;56.920;14.804;2023-02-15T00:41:40;2.00;99.90
18839;DHT22;9548;56.920;14.804;2023-02-15T00:44:08;2.10;99.90
18839;DHT22;9548;56.920;14.804;2023-02-15T00:46:35;2.10;99.90
18839;DHT22;9548;56.920;14.804;2023-02-15T00:49:03;2.10;99.90
18839;DHT22;9548;56.920;14.804;2023-02-15T00:54:52;2.00;99.90
18839;DHT22;9548;56.920;14.804;2023-02-15T00:57:20;2.00;99.90
18839;DHT22;9548;56.920;14.804;2023-02-15T04:22:06;1.60;99.90
18839;DHT22;9548;56.920;14.804;2023-02-15T04:24:51;1.60;99.90
18839;DHT22;9548;56.920;14.804;2023-02-15T04:27:36;1.60;99.90
18839;DHT22;9548;56.920;14.804;2023-02-15T04:30:03;1.60;99.90
18839;DHT22;9548;56.920;14.804;2023-02-15T04:32:30;1.60;99.90
18839;DHT22;9548;56.920;14.804;2023-02-15T04:34:57;1.50;99.90
18839;DHT22;9548;56.920;14.804;2023-02-15T04:37:26;1.50;99.90
18839;DHT22;9548;56.920;14.804;2023-02-15T04:39:53;1.50;99.90
18839;DHT22;9548;56.920;14.804;2023-02-15T04:42:20;1.50;99.90
18839;DHT22;9548;56.920;14.804;2023-02-15T04:44:46;1.50;99.90
18839;DHT22;9548;56.920;14.804;2023-02-15T04:47:13;1.50;99.90
18839;DHT22;9548;56.920;14.804;2023-02-15T04:49:40;1.50;99.90
18839;DHT22;9548;56.920;14.804;2023-02-15T04:52:07;1.50;99.90
18839;DHT22;9548;56.920;14.804;2023-02-15T04:54:35;1.50;99.90
18839;DHT22;9548;56.920;14.804;2023-02-15T04:57:03;1.60;99.90
18839;DHT22;9548;56.920;14.804;2023-02-15T04:59:31;1.60;99.90
18839;DHT22;9548;56.920;14.804;2023-02-15T05:01:58;1.60;99.90
18839;DHT22;9548;56.920;14.804;2023-02-15T05:04:25;1.60;99.90
18839;DHT22;9548;56.920;14.804;2023-02-15T05:06:52;1.60;99.90
18839;DHT22;9548;56.920;14.804;2023-02-15T05:09:19;1.50;99.90
18839;DHT22;9548;56.920;14.804;2023-02-15T05:11:47;1.60;99.90
18839;DHT22;9548;56.920;14.804;2023-02-15T05:14:14;1.50;99.90
18839;DHT22;9548;56.920;14.804;2023-02-15T05:16:41;1.50;99.90
18839;DHT22;9548;56.920;14.804;2023-02-15T05:19:08;1.40;99.90
18839;DHT22;9548;56.920;14.804;2023-02-15T05:21:35;1.40;99.90
18839;DHT22;9548;56.920;14.804;2023-02-15T05:24:02;1.50;99.90
18839;DHT22;9548;56.920;14.804;2023-02-15T05:26:50;1.50;99.90
18839;DHT22;9548;56.920;14.804;2023-02-15T05:29:35;1.50;99.90
18839;DHT22;9548;56.920;14.804;2023-02-15T05:32:02;1.50;99.90
18839;DHT22;9548;56.920;14.804;2023-02-15T05:34:29;1.40;99.90
18839;DHT22;9548;56.920;14.804;2023-02-15T05:36:56;1.40;99.90
18839;DHT22;9548;56.920;14.804;2023-02-15T05:39:23;1.40;99.90
18839;DHT22;9548;56.920;14.804;2023-02-15T05:41:51;1.40;99.90
18839;DHT22;9548;56.920;14.804;2023-02-15T05:44:18;1.30;99.90
18839;DHT22;9548;56.920;14.804;2023-02-15T05:46:45;1.30;99.90
18839;DHT22;9548;56.920;14.804;2023-02-15T05:49:12;1.30;99.90
18839;DHT22;9548;56.920;14.804;2023-02-15T05:51:39;1.40;99.90
18839;DHT22;9548;56.920;14.804;2023-02-15T05:54:07;1.30;99.90
18839;DHT22;9548;56.920;14.804;2023-02-15T05:56:33;1.30;99.90
18839;DHT22;9548;56.920;14.804;2023-02-15T05:59:02;1.30;99.90
18839;DHT22;9548;56.920;14.804;2023-02-15T06:01:29;1.40;99.90
18839;DHT22;9548;56.920;14.804;2023-02-15T06:03:56;1.40;99.90
18839;DHT22;9548;56.920;14.804;2023-02-15T06:06:23;1.40;99.90
18839;DHT22;9548;56.920;14.804;2023-02-15T06:08:50;1.30;99.90
18839;DHT22;9548;56.920;14.804;2023-02-15T06:11:17;1.30;99.90
18839;DHT22;9548;56.920;14.804;2023-02-15T06:13:44;1.30;99.90
18839;DHT22;9548;56.920;14.804;2023-02-15T06:16:13;1.30;99.90
18839;DHT22;9548;56.920;14.804;2023-02-15T06:18:41;1.30;99.90
18839;DHT22;9548;56.920;14.804;2023-02-15T06:21:08;1.40;99.90
18839;DHT22;9548;56.920;14.804;2023-02-15T06:23:35;1.30;99.90
18839;DHT22;9548;56.920;14.804;2023-02-15T06:26:02;1.30;99.90
18839;DHT22;9548;56.920;14.804;2023-02-15T06:28:29;1.30;99.90
18839;DHT22;9548;56.920;14.804;2023-02-15T06:30:56;1.30;99.90
18839;DHT22;9548;56.920;14.804;2023-02-15T06:33:24;1.30;99.90
18839;DHT22;9548;56.920;14.804;2023-02-15T06:35:51;1.40;99.90
18839;DHT22;9548;56.920;14.804;2023-02-15T06:38:18;1.40;99.90
18839;DHT22;9548;56.920;14.804;2023-02-15T06:40:44;1.40;99.90
18839;DHT22;9548;56.920;14.804;2023-02-15T06:43:11;1.40;99.90
18839;DHT22;9548;56.920;14.804;2023-02-15T06:45:38;1.40;99.90
18839;DHT22;9548;56.920;14.804;2023-02-15T06:48:05;1.40;99.90
18839;DHT22;9548;56.920;14.804;2023-02-15T06:50:35;1.30;99.90
18839;DHT22;9548;56.920;14.804;2023-02-15T06:53:02;1.30;99.90
18839;DHT22;9548;56.920;14.804;2023-02-15T06:55:29;1.40;99.90
18839;DHT22;9548;56.920;14.804;2023-02-15T06:57:56;1.40;99.90
18839;DHT22;9548;56.920;14.804;2023-02-15T07:00:23;1.40;99.90
18839;DHT22;9548;56.920;14.804;2023-02-15T07:02:53;1.40;99.90
18839;DHT22;9548;56.920;14.804;2023-02-15T07:05:23;1.40;99.90
18839;DHT22;9548;56.920;14.804;2023-02-15T07:07:52;1.50;99.90
18839;DHT22;9548;56.920;14.804;2023-02-15T07:10:18;1.50;99.90
18839;DHT22;9548;56.920;14.804;2023-02-15T07:12:45;1.50;99.90
18839;DHT22;9548;56.920;14.804;2023-02-15T07:15:13;1.50;99.90
18839;DHT22;9548;56.920;14.804;2023-02-15T07:17:40;1.50;99.90
18839;DHT22;9548;56.920;14.804;2023-02-15T07:20:11;1.40;99.90
18839;DHT22;9548;56.920;14.804;2023-02-15T07:22:38;1.50;99.90
18839;DHT22;9548;56.920;14.804;2023-02-15T07:25:09;1.50;99.90
18839;DHT22;9548;56.920;14.804;2023-02-15T07:27:36;1.60;99.90
18839;DHT22;9548;56.920;14.804;2023-02-15T07:30:04;1.50;99.90
18839;DHT22;9548;56.920;14.804;2023-02-15T07:32:32;1.50;99.90
18839;DHT22;9548;56.920;14.804;2023-02-15T07:34:59;1.50;99.90
18839;DHT22;9548;56.920;14.804;2023-02-15T07:37:27;1.50;99.90
18839;DHT22;9548;56.920;14.804;2023-02-15T07:39:54;1.50;99.90
18839;DHT22;9548;56.920;14.804;2023-02-15T07:42:22;1.50;99.90
18839;DHT22;9548;56.920;14.804;2023-02-15T07:44:49;1.50;99.90
18839;DHT22;9548;56.920;14.804;2023-02-15T07:47:16;1.60;99.90
18839;DHT22;9548;56.920;14.804;2023-02-15T07:49:43;1.60;99.90
18839;DHT22;9548;56.920;14.804;2023-02-15T07:52:10;1.60;99.90
18839;DHT22;9548;56.920;14.804;2023-02-15T07:54:37;1.60;99.90
18839;DHT22;9548;56.920;14.804;2023-02-15T07:57:04;1.60;99.90
18839;DHT22;9548;56.920;14.804;2023-02-15T07:59:33;1.60;99.90
18839;DHT22;9548;56.920;14.804;2023-02-15T08:02:00;1.60;99.90
18839;DHT22;9548;56.920;14.804;2023-02-15T08:04:27;1.60;99.90
18839;DHT22;9548;56.920;14.804;2023-02-15T08:06:54;1.60;99.90
18839;DHT22;9548;56.920;14.804;2023-02-15T08:09:21;1.60;99.90
18839;DHT22;9548;56.920;14.804;2023-02-15T08:11:48;1.60;99.90
18839;DHT22;9548;56.920;14.804;2023-02-15T08:14:17;1.70;99.90
18839;DHT22;9548;56.920;14.804;2023-02-15T08:16:47;1.60;99.90
18839;DHT22;9548;56.920;14.804;2023-02-15T08:19:16;1.60;99.90
18839;DHT22;9548;56.920;14.804;2023-02-15T08:21:46;1.60;99.90
18839;DHT22;9548;56.920;14.804;2023-02-15T08:24:15;1.60;99.90
18839;DHT22;9548;56.920;14.804;2023-02-15T08:26:43;1.60;99.90
18839;DHT22;9548;56.920;14.804;2023-02-15T08:29:13;1.60;99.90
18839;DHT22;9548;56.920;14.804;2023-02-15T08:31:40;1.60;99.90
18839;DHT22;9548;56.920;14.804;2023-02-15T08:34:09;1.60;99.90
18839;DHT22;9548;56.920;14.804;2023-02-15T08:36:37;1.70;99.90
18839;DHT22;9548;56.920;14.804;2023-02-15T08:39:05;1.70;99.90
18839;DHT22;9548;56.920;14.804;2023-02-15T08:41:33;1.60;99.90
18839;DHT22;9548;56.920;14.804;2023-02-15T08:44:03;1.70;99.90
18839;DHT22;9548;56.920;14.804;2023-02-15T08:46:32;1.70;99.90
18839;DHT22;9548;56.920;14.804;2023-02-15T08:49:00;1.70;99.90
18839;DHT22;9548;56.920;14.804;2023-02-15T08:51:29;1.80;99.90
18839;DHT22;9548;56.920;14.804;2023-02-15T08:53:58;1.70;99.90
18839;DHT22;9548;56.920;14.804;2023-02-15T08:56:27;1.70;99.90
18839;DHT22;9548;56.920;14.804;2023-02-15T08:58:54;1.70;99.90
18839;DHT22;9548;56.920;14.804;2023-02-15T09:01:23;1.70;99.90
18839;DHT22;9548;56.920;14.804;2023-02-15T09:03:56;1.80;99.90
18839;DHT22;9548;56.920;14.804;2023-02-15T09:06:24;1.90;99.90
18839;DHT22;9548;56.920;14.804;2023-02-15T09:08:53;1.90;99.90
18839;DHT22;9548;56.920;14.804;2023-02-15T09:11:22;2.00;99.90
18839;DHT22;9548;56.920;14.804;2023-02-15T09:13:51;2.00;99.90
18839;DHT22;9548;56.920;14.804;2023-02-15T09:16:18;2.00;99.90
18839;DHT22;9548;56.920;14.804;2023-02-15T09:18:45;2.10;99.90
18839;DHT22;9548;56.920;14.804;2023-02-15T09:21:14;2.10;99.90
18839;DHT22;9548;56.920;14.804;2023-02-15T09:23:41;2.10;99.90
18839;DHT22;9548;56.920;14.804;2023-02-15T09:26:12;2.10;99.90
18839;DHT22;9548;56.920;14.804;2023-02-15T09:28:40;2.10;99.90
18839;DHT22;9548;56.920;14.804;2023-02-15T09:31:09;2.10;99.90
18839;DHT22;9548;56.920;14.804;2023-02-15T09:33:37;2.20;99.90
18839;DHT22;9548;56.920;14.804;2023-02-15T09:36:05;2.20;99.90
18839;DHT22;9548;56.920;14.804;2023-02-15T09:38:32;2.20;99.90
18839;DHT22;9548;56.920;14.804;2023-02-15T09:41:24;2.30;99.90
18839;DHT22;9548;56.920;14.804;2023-02-15T09:44:03;2.30;99.90
18839;DHT22;9548;56.920;14.804;2023-02-15T09:46:49;2.40;99.90
18839;DHT22;9548;56.920;14.804;2023-02-15T09:49:25;2.50;99.90
18839;DHT22;9548;56.920;14.804;2023-02-15T09:52:17;2.50;99.90
18839;DHT22;9548;56.920;14.804;2023-02-15T09:55:00;2.50;99.90
18839;DHT22;9548;56.920;14.804;2023-02-15T09:57:36;2.50;99.90
18839;DHT22;9548;56.920;14.804;2023-02-15T10:00:12;2.50;99.90
18839;DHT22;9548;56.920;14.804;2023-02-15T10:02:56;2.50;99.90
18839;DHT22;9548;56.920;14.804;2023-02-15T10:05:40;2.50;99.90
18839;DHT22;9548;56.920;14.804;2023-02-15T10:08:40;2.60;99.90
18839;DHT22;9548;56.920;14.804;2023-02-15T10:11:16;2.60;99.90
18839;DHT22;9548;56.920;14.804;2023-02-15T10:14:15;2.60;99.90
18839;DHT22;9548;56.920;14.804;2023-02-15T10:16:53;2.60;99.90
18839;DHT22;9548;56.920;14.804;2023-02-15T10:19:28;2.70;99.90
18839;DHT22;9548;56.920;14.804;2023-02-15T10:22:10;2.70;99.90
18839;DHT22;9548;56.920;14.804;2023-02-15T10:25:00;2.70;99.90
18839;DHT22;9548;56.920;14.804;2023-02-15T10:27:40;2.80;99.90
18839;DHT22;9548;56.920;14.804;2023-02-15T10:30:14;2.70;99.90
18839;DHT22;9548;56.920;14.804;2023-02-15T10:32:51;2.80;99.90
18839;DHT22;9548;56.920;14.804;2023-02-15T10:35:25;2.80;99.90
18839;DHT22;9548;56.920;14.804;2023-02-15T10:38:17;2.90;99.90
18839;DHT22;9548;56.920;14.804;2023-02-15T10:40:52;3.00;99.90
18839;DHT22;9548;56.920;14.804;2023-02-15T10:43:37;3.10;99.90
18839;DHT22;9548;56.920;14.804;2023-02-15T10:46:17;3.20;99.90
18839;DHT22;9548;56.920;14.804;2023-02-15T10:49:11;3.20;99.90
18839;DHT22;9548;56.920;14.804;2023-02-15T10:51:45;3.20;99.90
18839;DHT22;9548;56.920;14.804;2023-02-15T10:54:24;3.20;99.90
18839;DHT22;9548;56.920;14.804;2023-02-15T10:57:04;3.10;99.90
18839;DHT22;9548;56.920;14.804;2023-02-15T10:59:42;3.10;99.90
18839;DHT22;9548;56.920;14.804;2023-02-15T11:02:20;3.10;99.90
18839;DHT22;9548;56.920;14.804;2023-02-15T11:04:58;3.10;99.90
18839;DHT22;9548;56.920;14.804;2023-02-15T11:07:33;3.10;99.90
18839;DHT22;9548;56.920;14.804;2023-02-15T11:10:15;3.10;99.90
18839;DHT22;9548;56.920;14.804;2023-02-15T11:12:47;3.30;99.90
18839;DHT22;9548;56.920;14.804;2023-02-15T11:15:18;3.30;99.90
18839;DHT22;9548;56.920;14.804;2023-02-15T11:17:52;3.30;99.90
18839;DHT22;9548;56.920;14.804;2023-02-15T11:20:26;3.40;99.90
18839;DHT22;9548;56.920;14.804;2023-02-15T11:22:54;3.30;99.90
18839;DHT22;9548;56.920;14.804;2023-02-15T11:25:25;3.30;99.90
18839;DHT22;9548;56.920;14.804;2023-02-15T11:27:53;3.30;99.90
18839;DHT22;9548;56.920;14.804;2023-02-15T11:30:22;3.40;99.90
18839;DHT22;9548;56.920;14.804;2023-02-15T11:32:52;3.30;99.90
18839;DHT22;9548;56.920;14.804;2023-02-15T11:35:25;3.30;99.90
18839;DHT22;9548;56.920;14.804;2023-02-15T11:37:57;3.30;99.90
18839;DHT22;9548;56.920;14.804;2023-02-15T11:40:27;3.40;99.90
18839;DHT22;9548;56.920;14.804;2023-02-15T11:42:56;3.40;99.90
18839;DHT22;9548;56.920;14.804;2023-02-15T11:45:27;3.40;99.90
18839;DHT22;9548;56.920;14.804;2023-02-15T11:47:56;3.50;99.90
18839;DHT22;9548;56.920;14.804;2023-02-15T11:50:26;3.40;99.90
18839;DHT22;9548;56.920;14.804;2023-02-15T11:52:58;3.20;99.90
18839;DHT22;9548;56.920;14.804;2023-02-15T11:55:27;3.20;99.90
18839;DHT22;9548;56.920;14.804;2023-02-15T11:57:59;3.20;99.90
18839;DHT22;9548;56.920;14.804;2023-02-15T12:00:33;3.20;99.90
18839;DHT22;9548;56.920;14.804;2023-02-15T12:03:09;3.30;99.90
18839;DHT22;9548;56.920;14.804;2023-02-15T12:05:41;3.30;99.90
18839;DHT22;9548;56.920;14.804;2023-02-15T12:08:15;3.40;99.90
18839;DHT22;9548;56.920;14.804;2023-02-15T12:10:50;3.40;99.90
18839;DHT22;9548;56.920;14.804;2023-02-15T12:13:20;3.30;99.90
18839;DHT22;9548;56.920;14.804;2023-02-15T12:15:49;3.40;99.90
18839;DHT22;9548;56.920;14.804;2023-02-15T12:18:26;3.40;99.90
18839;DHT22;9548;56.920;14.804;2023-02-15T12:20:58;3.50;99.90
18839;DHT22;9548;56.920;14.804;2023-02-15T12:23:28;3.50;99.90
18839;DHT22;9548;56.920;14.804;2023-02-15T12:25:56;3.40;99.90
18839;DHT22;9548;56.920;14.804;2023-02-15T12:28:26;3.40;99.90
18839;DHT22;9548;56.920;14.804;2023-02-15T12:30:57;3.40;99.90
18839;DHT22;9548;56.920;14.804;2023-02-15T12:33:29;3.40;99.90
18839;DHT22;9548;56.920;14.804;2023-02-15T12:35:59;3.40;99.90
18839;DHT22;9548;56.920;14.804;2023-02-15T12:38:28;3.40;99.90
18839;DHT22;9548;56.920;14.804;2023-02-15T12:41:00;3.50;99.90
18839;DHT22;9548;56.920;14.804;2023-02-15T12:43:30;3.50;99.90
18839;DHT22;9548;56.920;14.804;2023-02-15T12:46:23;3.60;99.90
18839;DHT22;9548;56.920;14.804;2023-02-15T12:49:16;3.60;99.90
18839;DHT22;9548;56.920;14.804;2023-02-15T12:51:45;3.70;99.90
18839;DHT22;9548;56.920;14.804;2023-02-15T12:54:25;3.60;99.90
18839;DHT22;9548;56.920;14.804;2023-02-15T12:56:54;3.50;99.90
18839;DHT22;9548;56.920;14.804;2023-02-15T12:59:22;3.50;99.90
18839;DHT22;9548;56.920;14.804;2023-02-15T13:01:51;3.50;99.90
18839;DHT22;9548;56.920;14.804;2023-02-15T13:04:23;3.60;99.90
18839;DHT22;9548;56.920;14.804;2023-02-15T13:06:52;3.60;99.90
18839;DHT22;9548;56.920;14.804;2023-02-15T13:09:24;3.60;99.90
18839;DHT22;9548;56.920;14.804;2023-02-15T13:11:56;3.60;99.90
18839;DHT22;9548;56.920;14.804;2023-02-15T13:14:28;3.70;99.90
18839;DHT22;9548;56.920;14.804;2023-02-15T13:17:00;3.70;99.90
18839;DHT22;9548;56.920;14.804;2023-02-15T13:19:33;3.70;99.90
18839;DHT22;9548;56.920;14.804;2023-02-15T13:22:05;3.90;99.90
18839;DHT22;9548;56.920;14.804;2023-02-15T13:24:35;3.80;99.90
18839;DHT22;9548;56.920;14.804;2023-02-15T13:27:03;3.80;99.90
18839;DHT22;9548;56.920;14.804;2023-02-15T13:29:34;3.80;99.90
18839;DHT22;9548;56.920;14.804;2023-02-15T13:32:22;3.70;99.90
18839;DHT22;9548;56.920;14.804;2023-02-15T13:34:56;3.70;99.90
18839;DHT22;9548;56.920;14.804;2023-02-15T13:37:35;3.70;99.90
18839;DHT22;9548;56.920;14.804;2023-02-15T13:40:10;3.70;99.90
18839;DHT22;9548;56.920;14.804;2023-02-15T13:42:41;3.70;99.90
18839;DHT22;9548;56.920;14.804;2023-02-15T13:45:27;3.70;99.90
18839;DHT22;9548;56.920;14.804;2023-02-15T13:48:00;3.70;99.90
18839;DHT22;9548;56.920;14.804;2023-02-15T13:50:47;3.80;99.90
18839;DHT22;9548;56.920;14.804;2023-02-15T13:53:35;3.80;99.90
18839;DHT22;9548;56.920;14.804;2023-02-15T13:56:13;3.70;99.90
18839;DHT22;9548;56.920;14.804;2023-02-15T14:01:49;3.70;99.90
18839;DHT22;9548;56.920;14.804;2023-02-15T14:04:36;3.70;99.90
18839;DHT22;9548;56.920;14.804;2023-02-15T14:07:33;3.60;99.90
18839;DHT22;9548;56.920;14.804;2023-02-15T14:10:23;3.60;99.90
18839;DHT22;9548;56.920;14.804;2023-02-15T14:13:19;3.60;99.90
18839;DHT22;9548;56.920;14.804;2023-02-15T14:15:55;3.60;99.90
18839;DHT22;9548;56.920;14.804;2023-02-15T14:18:29;3.60;99.90
18839;DHT22;9548;56.920;14.804;2023-02-15T14:21:05;3.60;99.90
18839;DHT22;9548;56.920;14.804;2023-02-15T14:23:47;3.60;99.90
18839;DHT22;9548;56.920;14.804;2023-02-15T14:26:21;3.60;99.90
18839;DHT22;9548;56.920;14.804;2023-02-15T14:28:56;3.60;99.90
18839;DHT22;9548;56.920;14.804;2023-02-15T14:31:28;3.60;99.90
18839;DHT22;9548;56.920;14.804;2023-02-15T14:33:57;3.60;99.90
18839;DHT22;9548;56.920;14.804;2023-02-15T14:36:25;3.60;99.90
18839;DHT22;9548;56.920;14.804;2023-02-15T14:39:08;3.70;99.90
18839;DHT22;9548;56.920;14.804;2023-02-15T14:41:57;3.70;99.90
18839;DHT22;9548;56.920;14.804;2023-02-15T14:44:33;3.70;99.90
18839;DHT22;9548;56.920;14.804;2023-02-15T14:47:09;3.80;99.90
18839;DHT22;9548;56.920;14.804;2023-02-15T14:49:38;3.90;99.90
18839;DHT22;9548;56.920;14.804;2023-02-15T14:52:06;3.90;99.90
18839;DHT22;9548;56.920;14.804;2023-02-15T14:54:54;3.80;99.90
18839;DHT22;9548;56.920;14.804;2023-02-15T14:57:24;3.80;99.90
18839;DHT22;9548;56.920;14.804;2023-02-15T14:59:54;3.80;99.90
18839;DHT22;9548;56.920;14.804;2023-02-15T15:02:25;3.80;99.90
18839;DHT22;9548;56.920;14.804;2023-02-15T15:04:59;3.80;99.90
18839;DHT22;9548;56.920;14.804;2023-02-15T15:07:34;3.80;99.90
18839;DHT22;9548;56.920;14.804;2023-02-15T15:10:06;3.90;99.90
18839;DHT22;9548;56.920;14.804;2023-02-15T15:12:41;3.80;99.90
18839;DHT22;9548;56.920;14.804;2023-02-15T15:15:13;3.80;99.90
18839;DHT22;9548;56.920;14.804;2023-02-15T15:17:58;3.80;99.90
18839;DHT22;9548;56.920;14.804;2023-02-15T15:20:40;3.80;99.90
18839;DHT22;9548;56.920;14.804;2023-02-15T15:23:41;3.70;99.90
18839;DHT22;9548;56.920;14.804;2023-02-15T15:26:32;3.80;99.90
18839;DHT22;9548;56.920;14.804;2023-02-15T15:29:03;3.70;99.90
18839;DHT22;9548;56.920;14.804;2023-02-15T15:31:36;3.70;99.90
18839;DHT22;9548;56.920;14.804;2023-02-15T15:34:26;3.70;99.90
18839;DHT22;9548;56.920;14.804;2023-02-15T15:37:34;3.70;99.90
18839;DHT22;9548;56.920;14.804;2023-02-15T15:46:41;3.80;99.90
18839;DHT22;9548;56.920;14.804;2023-02-15T15:49:16;3.70;99.90
18839;DHT22;9548;56.920;14.804;2023-02-15T15:51:45;3.70;99.90
18839;DHT22;9548;56.920;14.804;2023-02-15T15:54:15;3.70;99.90
18839;DHT22;9548;56.920;14.804;2023-02-15T15:56:47;3.80;99.90
18839;DHT22;9548;56.920;14.804;2023-02-15T15:59:22;3.80;99.90
18839;DHT22;9548;56.920;14.804;2023-02-15T16:01:51;3.80;99.90
18839;DHT22;9548;56.920;14.804;2023-02-15T16:04:26;3.80;99.90
18839;DHT22;9548;56.920;14.804;2023-02-15T16:06:55;3.70;99.90
18839;DHT22;9548;56.920;14.804;2023-02-15T16:09:24;3.70;99.90
18839;DHT22;9548;56.920;14.804;2023-02-15T16:11:53;3.70;99.90
18839;DHT22;9548;56.920;14.804;2023-02-15T16:14:26;3.70;99.90
18839;DHT22;9548;56.920;14.804;2023-02-15T16:17:00;3.70;99.90
18839;DHT22;9548;56.920;14.804;2023-02-15T16:19:30;3.70;99.90
18839;DHT22;9548;56.920;14.804;2023-02-15T16:22:00;3.70;99.90
18839;DHT22;9548;56.920;14.804;2023-02-15T16:24:38;3.70;99.90
18839;DHT22;9548;56.920;14.804;2023-02-15T16:30:25;3.70;99.90
18839;DHT22;9548;56.920;14.804;2023-02-15T16:32:57;3.70;99.90
18839;DHT22;9548;56.920;14.804;2023-02-15T16:35:30;3.70;99.90
18839;DHT22;9548;56.920;14.804;2023-02-15T16:37:57;3.70;99.90
18839;DHT22;9548;56.920;14.804;2023-02-15T16:40:45;3.70;99.90
18839;DHT22;9548;56.920;14.804;2023-02-15T16:43:22;3.70;99.90
18839;DHT22;9548;56.920;14.804;2023-02-15T16:45:56;3.70;99.90
18839;DHT22;9548;56.920;14.804;2023-02-15T16:48:26;3.70;99.90
18839;DHT22;9548;56.920;14.804;2023-02-15T16:50:56;3.70;99.90
18839;DHT22;9548;56.920;14.804;2023-02-15T16:53:25;3.70;99.90
18839;DHT22;9548;56.920;14.804;2023-02-15T16:55:54;3.70;99.90
18839;DHT22;9548;56.920;14.804;2023-02-15T16:58:28;3.70;99.90
18839;DHT22;9548;56.920;14.804;2023-02-15T17:00:57;3.70;99.90
18839;DHT22;9548;56.920;14.804;2023-02-15T17:03:26;3.70;99.90
18839;DHT22;9548;56.920;14.804;2023-02-15T17:05:54;3.70;99.90
18839;DHT22;9548;56.920;14.804;2023-02-15T17:08:26;3.80;99.90
18839;DHT22;9548;56.920;14.804;2023-02-15T17:11:15;3.80;99.90
18839;DHT22;9548;56.920;14.804;2023-02-15T17:14:11;3.80;99.90
18839;DHT22;9548;56.920;14.804;2023-02-15T17:16:42;3.70;99.90
18839;DHT22;9548;56.920;14.804;2023-02-15T17:19:18;3.70;99.90
18839;DHT22;9548;56.920;14.804;2023-02-15T17:21:50;3.70;99.90
18839;DHT22;9548;56.920;14.804;2023-02-15T17:24:19;3.70;99.90
18839;DHT22;9548;56.920;14.804;2023-02-15T17:26:49;3.80;99.90
18839;DHT22;9548;56.920;14.804;2023-02-15T17:29:23;3.80;99.90
18839;DHT22;9548;56.920;14.804;2023-02-15T17:31:54;3.70;99.90
18839;DHT22;9548;56.920;14.804;2023-02-15T17:35:05;3.70;99.90
18839;DHT22;9548;56.920;14.804;2023-02-15T17:37:43;3.70;99.90
18839;DHT22;9548;56.920;14.804;2023-02-15T17:40:18;3.80;99.90
18839;DHT22;9548;56.920;14.804;2023-02-15T17:42:46;3.80;99.90
18839;DHT22;9548;56.920;14.804;2023-02-15T17:45:13;3.80;99.90
18839;DHT22;9548;56.920;14.804;2023-02-15T17:47:40;3.80;99.90
18839;DHT22;9548;56.920;14.804;2023-02-15T17:50:17;3.70;99.90
18839;DHT22;9548;56.920;14.804;2023-02-15T17:52:45;3.80;99.90
18839;DHT22;9548;56.920;14.804;2023-02-15T17:55:14;3.80;99.90
18839;DHT22;9548;56.920;14.804;2023-02-15T17:58:03;3.80;99.90
18839;DHT22;9548;56.920;14.804;2023-02-15T18:00:32;3.80;99.90
18839;DHT22;9548;56.920;14.804;2023-02-15T18:03:18;3.80;99.90
18839;DHT22;9548;56.920;14.804;2023-02-15T18:06:04;3.90;99.90
18839;DHT22;9548;56.920;14.804;2023-02-15T18:08:49;3.80;99.90
18839;DHT22;9548;56.920;14.804;2023-02-15T18:11:33;3.80;99.90
18839;DHT22;9548;56.920;14.804;2023-02-15T18:14:02;3.80;99.90
18839;DHT22;9548;56.920;14.804;2023-02-15T18:16:31;3.80;99.90
18839;DHT22;9548;56.920;14.804;2023-02-15T18:18:59;3.90;99.90
18839;DHT22;9548;56.920;14.804;2023-02-15T18:21:27;3.90;99.90
18839;DHT22;9548;56.920;14.804;2023-02-15T18:23:55;3.90;99.90
18839;DHT22;9548;56.920;14.804;2023-02-15T18:26:23;3.80;99.90
18839;DHT22;9548;56.920;14.804;2023-02-15T18:28:51;3.80;99.90
18839;DHT22;9548;56.920;14.804;2023-02-15T18:31:18;3.80;99.90
18839;DHT22;9548;56.920;14.804;2023-02-15T18:33:48;3.90;99.90
18839;DHT22;9548;56.920;14.804;2023-02-15T18:36:20;3.80;99.90
18839;DHT22;9548;56.920;14.804;2023-02-15T18:38:49;3.80;99.90
18839;DHT22;9548;56.920;14.804;2023-02-15T18:41:19;3.80;99.90
18839;DHT22;9548;56.920;14.804;2023-02-15T18:43:46;3.80;99.90
18839;DHT22;9548;56.920;14.804;2023-02-15T18:46:15;3.90;99.90
18839;DHT22;9548;56.920;14.804;2023-02-15T18:48:42;3.90;99.90
18839;DHT22;9548;56.920;14.804;2023-02-15T18:51:15;3.90;99.90
18839;DHT22;9548;56.920;14.804;2023-02-15T18:53:44;3.90;99.90
18839;DHT22;9548;56.920;14.804;2023-02-15T18:56:14;3.90;99.90
18839;DHT22;9548;56.920;14.804;2023-02-15T18:58:43;3.90;99.90
18839;DHT22;9548;56.920;14.804;2023-02-15T19:01:12;3.90;99.90
18839;DHT22;9548;56.920;14.804;2023-02-15T19:03:45;3.90;99.90
18839;DHT22;9548;56.920;14.804;2023-02-15T19:06:13;3.90;99.90
18839;DHT22;9548;56.920;14.804;2023-02-15T19:08:42;3.90;99.90
18839;DHT22;9548;56.920;14.804;2023-02-15T19:11:17;3.90;99.90
18839;DHT22;9548;56.920;14.804;2023-02-15T19:13:44;3.90;99.90
18839;DHT22;9548;56.920;14.804;2023-02-15T19:16:28;3.90;99.90
18839;DHT22;9548;56.920;14.804;2023-02-15T19:18:55;3.90;99.90
18839;DHT22;9548;56.920;14.804;2023-02-15T19:21:23;3.90;99.90
18839;DHT22;9548;56.920;14.804;2023-02-15T19:23:53;3.90;99.90
18839;DHT22;9548;56.920;14.804;2023-02-15T19:26:22;3.90;99.90
18839;DHT22;9548;56.920;14.804;2023-02-15T19:28:49;3.90;99.90
18839;DHT22;9548;56.920;14.804;2023-02-15T19:31:16;3.90;99.90
18839;DHT22;9548;56.920;14.804;2023-02-15T19:33:43;4.00;99.90
18839;DHT22;9548;56.920;14.804;2023-02-15T19:36:15;3.90;99.90
18839;DHT22;9548;56.920;14.804;2023-02-15T19:38:44;4.00;99.90
18839;DHT22;9548;56.920;14.804;2023-02-15T19:41:17;4.00;99.90
18839;DHT22;9548;56.920;14.804;2023-02-15T19:43:50;3.90;99.90
18839;DHT22;9548;56.920;14.804;2023-02-15T19:46:20;3.90;99.90
18839;DHT22;9548;56.920;14.804;2023-02-15T19:48:47;4.00;99.90
18839;DHT22;9548;56.920;14.804;2023-02-15T19:51:14;4.00;99.90
18839;DHT22;9548;56.920;14.804;2023-02-15T19:53:41;3.90;99.90
18839;DHT22;9548;56.920;14.804;2023-02-15T19:56:11;3.90;99.90